createdAt,value
2019-04-25T00:01:01.213Z,53.93
2019-04-25T00:03:09.668Z,53.82
2019-04-25T00:05:19.073Z,53.72
2019-04-25T00:07:27.028Z,53.72
2019-04-25T00:09:37.585Z,53.72
2019-04-25T00:11:47.814Z,53.86
2019-04-25T00:13:55.546Z,53.94
2019-04-25T00:16:04.108Z,53.63
2019-04-25T00:18:12.176Z,53.89
2019-04-25T00:20:21.395Z,53.54
2019-04-25T00:22:31.694Z,53.61
2019-04-25T00:24:39.747Z,53.62
2019-04-25T00:26:49.208Z,53.52
2019-04-25T00:28:57.195Z,53.49
2019-04-25T00:31:05.691Z,53.50
2019-04-25T00:33:13.676Z,53.47
2019-04-25T00:35:21.761Z,53.51
2019-04-25T00:37:29.927Z,53.37
2019-04-25T00:39:37.883Z,53.47
2019-04-25T00:41:46.418Z,53.52
2019-04-25T00:43:55.596Z,53.66
2019-04-25T00:46:03.450Z,53.62
2019-04-25T00:48:12.260Z,53.72
2019-04-25T00:50:21.887Z,53.75
2019-04-25T00:52:31.360Z,53.79
2019-04-25T00:54:39.367Z,53.85
2019-04-25T00:56:48.262Z,54.02
2019-04-25T00:58:56.510Z,53.92
2019-04-25T01:01:12.080Z,53.99
2019-04-25T01:03:27.903Z,54.01
2019-04-25T01:05:35.766Z,54.18
2019-04-25T01:07:44.360Z,54.20
2019-04-25T01:09:53.643Z,54.15
2019-04-25T01:12:04.145Z,54.14
2019-04-25T01:14:12.037Z,54.23
2019-04-25T01:16:22.030Z,54.24
2019-04-25T01:18:31.415Z,54.06
2019-04-25T01:20:39.533Z,54.19
2019-04-25T01:22:47.414Z,54.34
2019-04-25T01:24:56.074Z,54.29
2019-04-25T01:27:05.906Z,54.38
2019-04-25T01:29:14.060Z,54.58
2019-04-25T01:31:24.890Z,55.00
2019-04-25T01:33:33.368Z,55.38
2019-04-25T01:35:46.215Z,55.72
2019-04-25T01:38:03.799Z,55.95
2019-04-25T01:40:14.500Z,56.29
2019-04-25T01:42:35.891Z,56.34
2019-04-25T01:44:45.390Z,56.48
2019-04-25T01:46:54.466Z,56.81
2019-04-25T01:49:04.320Z,56.99
2019-04-25T01:51:14.090Z,57.32
2019-04-25T01:53:22.102Z,57.43
2019-04-25T01:55:30.440Z,57.70
2019-04-25T01:57:38.235Z,57.84
2019-04-25T01:59:46.310Z,58.14
2019-04-25T02:01:55.431Z,58.38
2019-04-25T02:04:04.374Z,58.52
2019-04-25T02:06:13.663Z,58.69
2019-04-25T02:08:21.560Z,58.99
2019-04-25T02:10:30.525Z,59.17
2019-04-25T02:12:52.785Z,59.44
2019-04-25T02:15:03.936Z,59.56
2019-04-25T02:17:11.601Z,59.83
2019-04-25T02:19:19.414Z,60.02
2019-04-25T02:21:27.276Z,60.26
2019-04-25T02:23:35.167Z,60.49
2019-04-25T02:25:44.272Z,60.71
2019-04-25T02:27:53.395Z,60.97
2019-04-25T02:30:03.556Z,61.37
2019-04-25T02:32:11.494Z,61.58
2019-04-25T02:34:19.371Z,61.85
2019-04-25T02:36:27.395Z,61.96
2019-04-25T02:38:35.485Z,62.32
2019-04-25T02:40:45.445Z,62.55
2019-04-25T02:42:55.817Z,62.57
2019-04-25T02:45:19.408Z,62.86
2019-04-25T02:47:34.284Z,63.01
2019-04-25T02:49:44.794Z,63.12
2019-04-25T02:51:56.194Z,63.30
2019-04-25T02:54:06.774Z,63.35
2019-04-25T02:56:27.501Z,63.41
2019-04-25T02:58:24.297Z,63.59
2019-04-25T03:00:47.674Z,63.75
2019-04-25T03:02:44.561Z,63.87
2019-04-25T03:04:54.529Z,64.05
2019-04-25T03:07:07.152Z,64.27
2019-04-25T03:09:15.133Z,64.20
2019-04-25T03:11:24.298Z,64.33
2019-04-25T03:13:34.138Z,64.30
2019-04-25T03:15:41.454Z,64.53
2019-04-25T03:17:49.315Z,64.61
2019-04-25T03:20:15.190Z,64.73
2019-04-25T03:22:31.250Z,64.70
2019-04-25T03:24:39.083Z,64.92
2019-04-25T03:26:47.040Z,64.91
2019-04-25T03:28:54.895Z,65.05
2019-04-25T03:31:08.697Z,65.09
2019-04-25T03:33:18.915Z,65.13
2019-04-25T03:35:23.280Z,65.21
2019-04-25T03:37:33.035Z,65.23
2019-04-25T03:39:41.059Z,65.15
2019-04-25T03:41:48.854Z,65.05
2019-04-25T03:43:56.674Z,65.40
2019-04-25T03:46:06.167Z,65.83
2019-04-25T03:48:14.892Z,65.84
2019-04-25T03:50:23.297Z,65.93
2019-04-25T03:52:31.282Z,65.96
2019-04-25T03:54:39.169Z,66.16
2019-04-25T03:56:53.437Z,66.10
2019-04-25T03:58:56.819Z,65.99
2019-04-25T04:01:06.954Z,65.81
2019-04-25T04:03:15.290Z,65.71
2019-04-25T04:05:23.423Z,65.20
2019-04-25T04:07:33.599Z,65.44
2019-04-25T04:09:41.414Z,66.16
2019-04-25T04:11:49.401Z,66.29
2019-04-25T04:13:57.344Z,66.24
2019-04-25T04:16:06.433Z,66.56
2019-04-25T04:18:17.238Z,66.66
2019-04-25T04:20:38.864Z,66.95
2019-04-25T04:23:03.434Z,67.07
2019-04-25T04:25:13.865Z,67.13
2019-04-25T04:27:23.977Z,67.39
2019-04-25T04:29:33.144Z,67.62
2019-04-25T04:31:41.188Z,67.69
2019-04-25T04:33:48.957Z,67.72
2019-04-25T04:35:56.844Z,67.91
2019-04-25T04:38:04.684Z,67.82
2019-04-25T04:40:14.784Z,67.71
2019-04-25T04:42:23.756Z,67.42
2019-04-25T04:44:31.739Z,67.51
2019-04-25T04:46:39.528Z,67.37
2019-04-25T04:48:47.364Z,67.23
2019-04-25T04:50:55.261Z,66.93
2019-04-25T04:53:03.917Z,66.61
2019-04-25T04:55:15.588Z,66.45
2019-04-25T04:57:32.230Z,66.38
2019-04-25T04:59:33.787Z,66.36
2019-04-25T05:01:55.796Z,66.28
2019-04-25T05:04:09.170Z,66.03
2019-04-25T05:06:19.759Z,66.11
2019-04-25T05:08:29.328Z,65.90
2019-04-25T05:10:37.188Z,65.90
2019-04-25T05:12:45.076Z,65.82
2019-04-25T05:14:53.700Z,65.60
2019-04-25T05:17:01.761Z,65.45
2019-04-25T05:19:09.674Z,65.52
2019-04-25T05:21:18.252Z,65.28
2019-04-25T05:23:26.365Z,65.32
2019-04-25T05:25:34.565Z,65.30
2019-04-25T05:27:57.783Z,65.34
2019-04-25T05:29:52.047Z,65.46
2019-04-25T05:32:00.933Z,65.49
2019-04-25T05:34:08.754Z,65.71
2019-04-25T05:36:17.552Z,65.89
2019-04-25T05:38:26.314Z,65.91
2019-04-25T05:40:36.837Z,66.03
2019-04-25T05:42:47.189Z,65.70
2019-04-25T05:44:56.697Z,65.43
2019-04-25T05:47:04.793Z,65.45
2019-04-25T05:49:13.831Z,65.16
2019-04-25T05:51:23.539Z,65.18
2019-04-25T05:53:33.262Z,64.62
2019-04-25T05:55:41.179Z,64.12
2019-04-25T05:57:50.327Z,63.31
2019-04-25T05:59:58.258Z,63.17
2019-04-25T06:02:06.155Z,63.14
2019-04-25T06:04:15.107Z,62.08
2019-04-25T06:06:24.763Z,61.89
2019-04-25T06:08:34.259Z,60.94
2019-04-25T06:10:45.201Z,60.75
2019-04-25T06:12:53.618Z,59.63
2019-04-25T06:15:02.903Z,58.43
2019-04-25T06:17:15.622Z,58.14
2019-04-25T06:19:43.406Z,57.77
2019-04-25T06:21:51.479Z,56.39
2019-04-25T06:24:06.714Z,55.49
2019-04-25T06:26:24.806Z,56.06
2019-04-25T06:28:28.237Z,55.76
2019-04-25T06:30:36.635Z,55.97
2019-04-25T06:32:44.913Z,55.44
2019-04-25T06:34:54.272Z,54.68
2019-04-25T06:37:04.774Z,55.25
2019-04-25T06:39:14.183Z,54.51
2019-04-25T06:41:22.385Z,54.56
2019-04-25T06:43:30.598Z,54.10
2019-04-25T06:45:44.139Z,53.04
2019-04-25T06:48:01.302Z,53.11
2019-04-25T06:50:09.675Z,53.49
2019-04-25T06:52:17.512Z,53.29
2019-04-25T06:54:26.842Z,52.61
2019-04-25T06:56:35.418Z,52.47
2019-04-25T06:58:43.993Z,52.99
2019-04-25T07:00:58.835Z,52.25
2019-04-25T07:03:01.862Z,52.39
2019-04-25T07:05:25.628Z,51.68
2019-04-25T07:07:24.282Z,50.37
2019-04-25T07:09:34.299Z,51.08
2019-04-25T07:11:41.556Z,51.86
2019-04-25T07:13:49.920Z,51.85
2019-04-25T07:15:57.809Z,50.62
2019-04-25T07:18:05.997Z,50.27
2019-04-25T07:20:14.993Z,49.75
2019-04-25T07:22:23.897Z,50.30
2019-04-25T07:24:35.194Z,49.49
2019-04-25T07:26:44.245Z,49.71
2019-04-25T07:29:11.201Z,48.63
2019-04-25T07:31:33.547Z,48.92
2019-04-25T07:33:53.568Z,49.68
2019-04-25T07:36:04.141Z,50.07
2019-04-25T07:38:14.006Z,49.37
2019-04-25T07:40:23.677Z,49.06
2019-04-25T07:42:34.236Z,47.87
2019-04-25T07:44:50.583Z,47.73
2019-04-25T07:46:54.127Z,47.61
2019-04-25T07:49:03.465Z,48.06
2019-04-25T07:51:16.172Z,47.37
2019-04-25T07:53:24.031Z,47.53
2019-04-25T07:55:33.283Z,47.88
2019-04-25T07:57:44.109Z,47.81
2019-04-25T07:59:53.716Z,47.60
2019-04-25T08:02:03.293Z,47.32
2019-04-25T08:04:11.595Z,47.71
2019-04-25T08:06:22.188Z,47.57
2019-04-25T08:08:29.815Z,47.14
2019-04-25T08:11:00.992Z,47.99
2019-04-25T08:13:08.883Z,47.59
2019-04-25T08:15:28.369Z,46.58
2019-04-25T08:17:46.449Z,46.96
2019-04-25T08:19:54.700Z,47.12
2019-04-25T08:22:03.629Z,47.98
2019-04-25T08:24:13.578Z,47.66
2019-04-25T08:26:23.658Z,49.69
2019-04-25T08:28:33.690Z,51.03
2019-04-25T08:30:41.876Z,51.36
2019-04-25T08:32:51.586Z,47.59
2019-04-25T08:34:59.673Z,47.03
2019-04-25T08:37:17.573Z,46.26
2019-04-25T08:39:17.431Z,46.44
2019-04-25T08:41:25.482Z,46.75
2019-04-25T08:43:34.831Z,44.92
2019-04-25T08:45:44.290Z,45.08
2019-04-25T08:47:53.833Z,44.84
2019-04-25T08:50:06.336Z,44.54
2019-04-25T08:52:14.127Z,45.49
2019-04-25T08:54:35.395Z,45.52
2019-04-25T08:56:43.992Z,45.11
2019-04-25T08:59:03.897Z,45.22
2019-04-25T09:01:09.228Z,45.33
2019-04-25T09:03:18.841Z,45.15
2019-04-25T09:05:36.351Z,44.15
2019-04-25T09:07:45.392Z,43.04
2019-04-25T09:09:54.563Z,43.18
2019-04-25T09:12:04.112Z,43.54
2019-04-25T09:14:13.459Z,42.64
2019-04-25T09:16:21.352Z,43.37
2019-04-25T09:18:29.189Z,42.97
2019-04-25T09:20:39.594Z,43.39
2019-04-25T09:22:46.714Z,42.82
2019-04-25T09:24:54.900Z,43.57
2019-04-25T09:27:03.669Z,43.36
2019-04-25T09:29:18.966Z,41.55
2019-04-25T09:31:23.592Z,43.53
2019-04-25T09:33:31.730Z,42.99
2019-04-25T09:35:39.834Z,41.31
2019-04-25T09:37:48.099Z,41.53
2019-04-25T09:40:06.423Z,40.68
2019-04-25T09:42:14.380Z,42.48
2019-04-25T09:44:26.827Z,41.16
2019-04-25T09:46:37.312Z,40.93
2019-04-25T09:48:58.944Z,41.02
2019-04-25T09:51:13.549Z,41.24
2019-04-25T09:53:25.537Z,40.22
2019-04-25T09:55:44.087Z,40.49
2019-04-25T09:58:00.716Z,40.64
2019-04-25T10:00:26.206Z,39.60
2019-04-25T10:02:34.029Z,41.25
2019-04-25T10:04:41.918Z,41.19
2019-04-25T10:06:50.201Z,40.46
2019-04-25T10:08:59.084Z,40.49
2019-04-25T10:11:07.100Z,39.61
2019-04-25T10:13:14.956Z,40.34
2019-04-25T10:16:01.761Z,39.96
2019-04-25T10:18:09.955Z,39.72
2019-04-25T10:22:26.124Z,39.18
2019-04-25T10:24:34.211Z,38.44
2019-04-25T10:26:41.994Z,38.81
2019-04-25T10:28:49.977Z,38.64
2019-04-25T10:30:57.983Z,37.81
2019-04-25T10:33:06.190Z,37.68
2019-04-25T10:35:15.444Z,38.00
2019-04-25T10:37:23.370Z,38.34
2019-04-25T10:39:31.603Z,38.98
2019-04-25T10:41:40.885Z,37.83
2019-04-25T10:43:50.402Z,39.54
2019-04-25T10:45:58.611Z,40.79
2019-04-25T10:48:06.802Z,39.20
2019-04-25T10:50:15.488Z,36.86
2019-04-25T10:52:23.428Z,37.63
2019-04-25T10:54:31.427Z,38.11
2019-04-25T10:56:40.110Z,36.50
2019-04-25T10:58:48.187Z,36.19
2019-04-25T11:00:56.273Z,34.80
2019-04-25T11:03:22.185Z,36.33
2019-04-25T11:05:30.652Z,36.49
2019-04-25T11:07:38.496Z,36.07
2019-04-25T11:09:48.009Z,38.26
2019-04-25T11:11:56.182Z,38.63
2019-04-25T11:14:07.315Z,38.69
2019-04-25T11:16:16.545Z,37.69
2019-04-25T11:18:24.684Z,36.89
2019-04-25T11:20:33.928Z,36.79
2019-04-25T11:22:42.377Z,36.24
2019-04-25T11:24:52.991Z,37.17
2019-04-25T11:27:01.031Z,36.91
2019-04-25T11:29:09.056Z,37.64
2019-04-25T11:31:18.932Z,38.29
2019-04-25T11:33:26.927Z,39.63
2019-04-25T11:35:35.237Z,38.04
2019-04-25T11:37:45.074Z,36.93
2019-04-25T11:39:56.020Z,36.73
2019-04-25T11:42:05.351Z,36.42
2019-04-25T11:44:13.890Z,35.98
2019-04-25T11:46:22.189Z,35.77
2019-04-25T11:48:30.223Z,36.63
2019-04-25T11:50:39.342Z,37.37
2019-04-25T11:52:47.348Z,37.72
2019-04-25T11:54:55.761Z,37.06
2019-04-25T11:57:03.646Z,34.96
2019-04-25T11:59:13.771Z,35.30
2019-04-25T12:01:24.325Z,35.64
2019-04-25T12:03:33.648Z,35.67
2019-04-25T12:05:42.963Z,35.84
2019-04-25T12:07:51.437Z,35.35
2019-04-25T12:09:59.475Z,35.41
2019-04-25T12:12:07.527Z,33.97
2019-04-25T12:14:16.560Z,34.25
2019-04-25T12:16:25.191Z,34.24
2019-04-25T12:18:33.900Z,33.81
2019-04-25T12:20:45.869Z,34.42
2019-04-25T12:23:04.164Z,34.29
2019-04-25T12:25:04.638Z,34.30
2019-04-25T12:27:12.799Z,33.69
2019-04-25T12:29:20.583Z,33.17
2019-04-25T12:31:28.538Z,31.98
2019-04-25T12:33:36.852Z,33.02
2019-04-25T12:35:44.802Z,31.74
2019-04-25T12:37:54.053Z,33.03
2019-04-25T12:40:04.390Z,32.68
2019-04-25T12:42:14.340Z,33.42
2019-04-25T12:44:29.736Z,34.02
2019-04-25T12:46:43.631Z,32.48
2019-04-25T12:48:51.726Z,31.03
2019-04-25T12:50:59.867Z,32.57
2019-04-25T12:53:07.953Z,32.64
2019-04-25T12:55:16.781Z,31.76
2019-04-25T12:57:25.021Z,31.87
2019-04-25T12:59:32.906Z,33.36
2019-04-25T13:01:40.687Z,33.35
2019-04-25T13:03:48.694Z,33.33
2019-04-25T13:05:58.415Z,32.70
2019-04-25T13:08:06.684Z,32.05
2019-04-25T13:10:15.379Z,32.51
2019-04-25T13:12:24.067Z,32.67
2019-04-25T13:14:31.922Z,33.15
2019-04-25T13:16:40.803Z,32.64
2019-04-25T13:18:51.168Z,34.59
2019-04-25T13:20:59.182Z,33.42
2019-04-25T13:23:08.862Z,32.02
2019-04-25T13:25:18.687Z,31.52
2019-04-25T13:27:34.518Z,32.25
2019-04-25T13:29:46.721Z,32.12
2019-04-25T13:32:07.542Z,32.25
2019-04-25T13:34:35.383Z,32.62
2019-04-25T13:36:32.933Z,32.98
2019-04-25T13:38:43.645Z,32.17
2019-04-25T13:40:52.662Z,33.88
2019-04-25T13:43:00.737Z,33.36
2019-04-25T13:45:09.031Z,33.35
2019-04-25T13:47:17.254Z,33.27
2019-04-25T13:49:25.135Z,33.23
2019-04-25T13:51:33.289Z,33.96
2019-04-25T13:53:41.354Z,34.22
2019-04-25T13:55:49.267Z,33.54
2019-04-25T13:57:58.357Z,32.69
2019-04-25T14:00:10.411Z,34.24
2019-04-25T14:02:20.293Z,32.98
2019-04-25T14:04:29.493Z,31.71
2019-04-25T14:06:37.381Z,32.09
2019-04-25T14:08:45.192Z,31.24
2019-04-25T14:10:54.291Z,30.79
2019-04-25T14:13:03.519Z,30.56
2019-04-25T14:15:13.947Z,30.28
2019-04-25T14:17:40.232Z,30.39
2019-04-25T14:19:54.115Z,31.19
2019-04-25T14:22:04.322Z,31.92
2019-04-25T14:24:20.195Z,32.84
2019-04-25T14:26:22.984Z,31.91
2019-04-25T14:28:31.801Z,30.82
2019-04-25T14:30:40.613Z,30.41
2019-04-25T14:32:48.399Z,31.97
2019-04-25T14:34:56.459Z,30.75
2019-04-25T14:37:05.461Z,29.65
2019-04-25T14:39:14.165Z,28.31
2019-04-25T14:41:22.880Z,28.27
2019-04-25T14:43:32.071Z,30.30
2019-04-25T14:45:44.338Z,31.11
2019-04-25T14:47:49.763Z,31.21
2019-04-25T14:49:57.648Z,31.61
2019-04-25T14:52:05.609Z,31.27
2019-04-25T14:54:19.286Z,32.12
2019-04-25T14:56:44.005Z,30.67
2019-04-25T14:58:52.133Z,31.05
2019-04-25T15:01:00.106Z,30.82
2019-04-25T15:03:08.461Z,31.40
2019-04-25T15:05:16.721Z,31.68
2019-04-25T15:07:24.530Z,31.27
2019-04-25T15:09:32.578Z,31.42
2019-04-25T15:11:41.659Z,32.81
2019-04-25T15:13:50.632Z,31.28
2019-04-25T15:15:58.429Z,30.64
2019-04-25T15:18:06.288Z,30.82
2019-04-25T15:20:14.248Z,29.78
2019-04-25T15:22:22.133Z,29.93
2019-04-25T15:24:30.302Z,30.53
2019-04-25T15:26:40.323Z,29.58
2019-04-25T15:28:48.046Z,29.91
2019-04-25T15:30:55.902Z,31.33
2019-04-25T15:33:07.365Z,30.91
2019-04-25T15:35:17.905Z,31.71
2019-04-25T15:37:33.406Z,31.53
2019-04-25T15:39:48.926Z,32.11
2019-04-25T15:42:08.735Z,32.03
2019-04-25T15:44:33.231Z,31.81
2019-04-25T15:46:43.157Z,31.86
2019-04-25T15:48:51.112Z,32.30
2019-04-25T15:50:59.094Z,32.16
2019-04-25T15:53:08.302Z,32.03
2019-04-25T15:55:16.653Z,31.61
2019-04-25T15:57:24.621Z,31.58
2019-04-25T15:59:33.599Z,31.33
2019-04-25T16:01:42.573Z,31.65
2019-04-25T16:03:52.532Z,31.77
2019-04-25T16:06:01.112Z,32.12
2019-04-25T16:08:09.257Z,32.31
2019-04-25T16:10:19.163Z,32.85
2019-04-25T16:12:31.615Z,32.88
2019-04-25T16:14:40.119Z,32.63
2019-04-25T16:16:49.129Z,31.80
2019-04-25T16:18:57.299Z,32.09
2019-04-25T16:21:05.433Z,32.22
2019-04-25T16:23:13.495Z,32.12
2019-04-25T16:25:21.713Z,32.44
2019-04-25T16:27:30.398Z,33.16
2019-04-25T16:29:38.725Z,33.33
2019-04-25T16:31:46.821Z,33.30
2019-04-25T16:33:54.701Z,33.46
2019-04-25T16:36:02.483Z,33.22
2019-04-25T16:38:12.351Z,33.00
2019-04-25T16:40:20.314Z,33.02
2019-04-25T16:42:28.253Z,33.15
2019-04-25T16:44:36.192Z,33.23
2019-04-25T16:46:44.977Z,33.60
2019-04-25T16:49:00.344Z,33.71
2019-04-25T16:51:08.156Z,34.81
2019-04-25T16:53:18.643Z,34.86
2019-04-25T16:55:26.625Z,34.51
2019-04-25T16:57:34.858Z,34.61
2019-04-25T16:59:44.018Z,34.46
2019-04-25T17:01:51.827Z,34.53
2019-04-25T17:04:03.524Z,34.74
2019-04-25T17:06:11.467Z,35.02
2019-04-25T17:08:19.831Z,35.21
2019-04-25T17:10:29.048Z,35.56
2019-04-25T17:12:37.067Z,35.96
2019-04-25T17:15:02.280Z,36.24
2019-04-25T17:17:23.861Z,36.06
2019-04-25T17:19:37.066Z,36.37
2019-04-25T17:21:45.645Z,36.60
2019-04-25T17:23:54.306Z,36.76
2019-04-25T17:26:02.735Z,36.73
2019-04-25T17:28:16.321Z,36.94
2019-04-25T17:30:24.365Z,37.27
2019-04-25T17:32:48.564Z,37.63
2019-04-25T17:35:02.089Z,37.57
2019-04-25T17:37:14.820Z,37.63
2019-04-25T17:39:29.461Z,37.78
2019-04-25T17:41:38.386Z,38.16
2019-04-25T17:43:46.645Z,38.30
2019-04-25T17:45:54.740Z,38.65
2019-04-25T17:48:02.610Z,39.10
2019-04-25T17:50:11.954Z,39.66
2019-04-25T17:52:20.818Z,40.03
2019-04-25T17:54:29.020Z,40.35
2019-04-25T17:56:37.108Z,40.68
2019-04-25T17:58:44.907Z,40.73
2019-04-25T18:00:54.366Z,40.91
2019-04-25T18:03:02.334Z,41.48
2019-04-25T18:05:12.183Z,41.78
2019-04-25T18:07:20.087Z,41.94
2019-04-25T18:09:28.383Z,42.28
2019-04-25T18:11:36.713Z,42.60
2019-04-25T18:13:47.341Z,42.87
2019-04-25T18:16:12.934Z,43.16
2019-04-25T18:18:22.437Z,43.59
2019-04-25T18:20:31.870Z,43.81
2019-04-25T18:22:47.894Z,44.06
2019-04-25T18:25:13.238Z,44.33
2019-04-25T18:27:22.856Z,44.74
2019-04-25T18:29:30.788Z,44.89
2019-04-25T18:31:39.592Z,45.22
2019-04-25T18:33:49.188Z,45.46
2019-04-25T18:36:03.855Z,45.77
2019-04-25T18:38:13.632Z,46.18
2019-04-25T18:40:27.244Z,46.29
2019-04-25T18:42:46.445Z,46.70
2019-04-25T18:44:55.403Z,47.23
2019-04-25T18:47:03.437Z,47.69
2019-04-25T18:49:12.746Z,48.00
2019-04-25T18:51:20.761Z,48.40
2019-04-25T18:53:31.248Z,48.83
2019-04-25T18:55:57.126Z,49.21
2019-04-25T18:58:10.599Z,49.53
2019-04-25T19:00:22.231Z,49.73
2019-04-25T19:02:46.014Z,49.95
2019-04-25T19:05:14.478Z,50.11
2019-04-25T19:07:23.045Z,50.51
2019-04-25T19:09:31.477Z,50.96
2019-04-25T19:11:40.862Z,51.34
2019-04-25T19:13:49.830Z,51.69
2019-04-25T19:15:57.854Z,52.04
2019-04-25T19:18:06.121Z,52.20
2019-04-25T19:20:14.257Z,52.57
2019-04-25T19:22:22.340Z,52.77
2019-04-25T19:24:30.321Z,52.95
2019-04-25T19:26:40.727Z,53.21
2019-04-25T19:28:47.845Z,53.36
2019-04-25T19:30:55.785Z,53.68
2019-04-25T19:33:07.447Z,53.72
2019-04-25T19:35:14.952Z,53.77
2019-04-25T19:37:22.738Z,53.97
2019-04-25T19:39:32.277Z,54.00
2019-04-25T19:41:42.942Z,54.16
2019-04-25T19:43:58.327Z,54.25
2019-04-25T19:46:06.290Z,54.41
2019-04-25T19:48:14.191Z,54.59
2019-04-25T19:50:22.085Z,54.71
2019-04-25T19:52:29.955Z,54.88
2019-04-25T19:54:38.079Z,54.88
2019-04-25T19:56:45.951Z,54.98
2019-04-25T19:58:53.751Z,54.98
2019-04-25T20:01:01.748Z,55.00
2019-04-25T20:03:17.126Z,55.00
2019-04-25T20:05:29.407Z,54.98
2019-04-25T20:07:43.800Z,55.12
2019-04-25T20:09:55.897Z,55.23
2019-04-25T20:12:03.899Z,55.32
2019-04-25T20:14:12.710Z,55.53
2019-04-25T20:16:20.516Z,55.76
2019-04-25T20:18:28.489Z,55.89
2019-04-25T20:20:36.408Z,56.07
2019-04-25T20:22:44.859Z,56.29
2019-04-25T20:24:53.272Z,56.53
2019-04-25T20:27:01.195Z,56.72
2019-04-25T20:29:10.258Z,56.94
2019-04-25T20:31:18.061Z,57.08
2019-04-25T20:33:26.086Z,57.18
2019-04-25T20:35:34.256Z,57.24
2019-04-25T20:37:42.351Z,57.41
2019-04-25T20:39:51.518Z,57.51
2019-04-25T20:41:59.438Z,57.53
2019-04-25T20:44:07.234Z,57.61
2019-04-25T20:46:15.348Z,57.67
2019-04-25T20:48:23.546Z,57.66
2019-04-25T20:50:31.546Z,57.69
2019-04-25T20:52:39.909Z,57.75
2019-04-25T20:54:48.844Z,57.87
2019-04-25T20:56:57.257Z,58.03
2019-04-25T20:59:05.351Z,58.11
2019-04-25T21:01:13.150Z,58.22
2019-04-25T21:03:21.012Z,58.30
2019-04-25T21:05:28.977Z,58.41
2019-04-25T21:07:36.871Z,58.55
2019-04-25T21:09:44.765Z,58.59
2019-04-25T21:11:53.360Z,58.69
2019-04-25T21:14:01.377Z,58.65
2019-04-25T21:16:28.626Z,58.71
2019-04-25T21:18:38.236Z,58.79
2019-04-25T21:20:46.017Z,59.04
2019-04-25T21:22:55.834Z,58.93
2019-04-25T21:25:05.644Z,58.91
2019-04-25T21:27:14.048Z,59.05
2019-04-25T21:29:21.916Z,58.97
2019-04-25T21:31:29.944Z,58.93
2019-04-25T21:33:37.732Z,59.03
2019-04-25T21:35:46.278Z,59.13
2019-04-25T21:37:55.414Z,59.28
2019-04-25T21:40:15.003Z,59.42
2019-04-25T21:42:40.167Z,59.67
2019-04-25T21:44:48.268Z,59.92
2019-04-25T21:46:56.335Z,60.21
2019-04-25T21:49:05.208Z,60.54
2019-04-25T21:51:31.892Z,60.80
2019-04-25T21:53:40.366Z,60.96
2019-04-25T21:55:48.801Z,61.19
2019-04-25T21:57:58.055Z,61.39
2019-04-25T22:00:15.671Z,61.52
2019-04-25T22:02:26.170Z,61.71
2019-04-25T22:04:38.964Z,61.78
2019-04-25T22:06:44.468Z,61.87
2019-04-25T22:08:52.420Z,61.83
2019-04-25T22:11:01.680Z,61.75
2019-04-25T22:13:16.191Z,61.71
2019-04-25T22:15:20.063Z,61.66
2019-04-25T22:17:29.949Z,61.56
2019-04-25T22:19:38.176Z,61.54
2019-04-25T22:21:46.754Z,61.60
2019-04-25T22:24:06.219Z,61.47
2019-04-25T22:26:06.182Z,61.49
2019-04-25T22:28:17.938Z,61.26
2019-04-25T22:30:26.408Z,61.19
2019-04-25T22:32:36.523Z,61.07
2019-04-25T22:34:52.374Z,60.98
2019-04-25T22:37:00.038Z,60.97
2019-04-25T22:39:13.837Z,60.92
2019-04-25T22:41:22.113Z,60.96
2019-04-25T22:43:32.245Z,61.01
2019-04-25T22:45:40.815Z,60.99
2019-04-25T22:47:49.012Z,61.19
2019-04-25T22:49:56.829Z,61.19
2019-04-25T22:52:05.334Z,61.08
2019-04-25T22:54:13.133Z,61.02
2019-04-25T22:56:21.153Z,61.31
2019-04-25T22:58:28.972Z,61.64
2019-04-25T23:00:38.136Z,61.83
2019-04-25T23:02:48.389Z,61.83
2019-04-25T23:05:12.926Z,61.37
2019-04-25T23:07:17.367Z,61.37
2019-04-25T23:09:25.774Z,61.56
2019-04-25T23:11:34.118Z,62.12
2019-04-25T23:13:42.584Z,62.12
2019-04-25T23:15:50.976Z,62.21
2019-04-25T23:17:59.746Z,62.53
2019-04-25T23:20:07.785Z,62.72
2019-04-25T23:22:15.875Z,62.61
2019-04-25T23:24:26.544Z,62.44
2019-04-25T23:26:37.422Z,62.39
2019-04-25T23:28:47.027Z,62.54
2019-04-25T23:30:59.684Z,62.84
2019-04-25T23:33:08.484Z,62.88
2019-04-25T23:35:27.534Z,62.77
2019-04-25T23:37:26.560Z,62.80
2019-04-25T23:39:34.358Z,63.10
2019-04-25T23:41:42.645Z,63.11
2019-04-25T23:43:51.868Z,63.17
2019-04-25T23:46:00.339Z,63.28
2019-04-25T23:48:08.836Z,63.33
2019-04-25T23:50:17.793Z,63.63
2019-04-25T23:52:25.796Z,63.61
2019-04-25T23:54:33.787Z,63.47
2019-04-25T23:56:42.231Z,63.47
2019-04-25T23:58:50.436Z,63.72
